sensor_id;sensor_type;location;lat;lon;timestamp;P1;durP1;ratioP1;P2;durP2;ratioP2
20619;SDS011;10469;42.720;23.252;2023-12-29T00:01:24;46.85;;;25.88;;
20619;SDS011;10469;42.720;23.252;2023-12-29T00:03:55;48.05;;;25.98;;
20619;SDS011;10469;42.720;23.252;2023-12-29T00:06:20;48.25;;;29.73;;
20619;SDS011;10469;42.720;23.252;2023-12-29T00:08:46;49.83;;;30.77;;
20619;SDS011;10469;42.720;23.252;2023-12-29T00:11:21;44.90;;;30.50;;
20619;SDS011;10469;42.720;23.252;2023-12-29T00:13:47;50.15;;;29.42;;
20619;SDS011;10469;42.720;23.252;2023-12-29T00:16:16;42.47;;;26.85;;
20619;SDS011;10469;42.720;23.252;2023-12-29T00:18:42;40.10;;;23.13;;
20619;SDS011;10469;42.720;23.252;2023-12-29T00:21:07;36.55;;;23.35;;
20619;SDS011;10469;42.720;23.252;2023-12-29T00:23:33;43.45;;;25.45;;
20619;SDS011;10469;42.720;23.252;2023-12-29T00:25:58;42.55;;;26.13;;
20619;SDS011;10469;42.720;23.252;2023-12-29T00:28:24;38.47;;;24.55;;
20619;SDS011;10469;42.720;23.252;2023-12-29T00:30:50;35.92;;;23.17;;
20619;SDS011;10469;42.720;23.252;2023-12-29T00:33:15;37.63;;;22.48;;
20619;SDS011;10469;42.720;23.252;2023-12-29T00:35:41;37.70;;;23.67;;
20619;SDS011;10469;42.720;23.252;2023-12-29T00:38:07;35.88;;;22.90;;
20619;SDS011;10469;42.720;23.252;2023-12-29T00:40:32;43.95;;;24.38;;
20619;SDS011;10469;42.720;23.252;2023-12-29T00:43:01;65.10;;;34.58;;
20619;SDS011;10469;42.720;23.252;2023-12-29T00:45:27;57.70;;;33.33;;
20619;SDS011;10469;42.720;23.252;2023-12-29T00:47:59;43.65;;;24.35;;
20619;SDS011;10469;42.720;23.252;2023-12-29T00:50:25;45.15;;;27.67;;
20619;SDS011;10469;42.720;23.252;2023-12-29T00:52:51;41.53;;;27.95;;
20619;SDS011;10469;42.720;23.252;2023-12-29T00:55:17;69.85;;;39.90;;
20619;SDS011;10469;42.720;23.252;2023-12-29T00:57:43;108.65;;;62.45;;
20619;SDS011;10469;42.720;23.252;2023-12-29T01:00:10;85.70;;;44.72;;
20619;SDS011;10469;42.720;23.252;2023-12-29T01:02:37;88.32;;;52.75;;
20619;SDS011;10469;42.720;23.252;2023-12-29T01:05:03;87.22;;;50.63;;
20619;SDS011;10469;42.720;23.252;2023-12-29T01:07:29;89.95;;;48.55;;
20619;SDS011;10469;42.720;23.252;2023-12-29T01:09:55;84.80;;;46.92;;
20619;SDS011;10469;42.720;23.252;2023-12-29T01:12:20;72.38;;;42.10;;
20619;SDS011;10469;42.720;23.252;2023-12-29T01:14:46;79.90;;;47.60;;
20619;SDS011;10469;42.720;23.252;2023-12-29T01:17:11;81.45;;;47.13;;
20619;SDS011;10469;42.720;23.252;2023-12-29T01:19:37;69.80;;;43.03;;
20619;SDS011;10469;42.720;23.252;2023-12-29T01:22:03;67.97;;;42.38;;
20619;SDS011;10469;42.720;23.252;2023-12-29T01:24:28;64.93;;;38.78;;
20619;SDS011;10469;42.720;23.252;2023-12-29T01:26:54;65.22;;;35.83;;
20619;SDS011;10469;42.720;23.252;2023-12-29T01:29:21;55.38;;;35.40;;
20619;SDS011;10469;42.720;23.252;2023-12-29T01:31:46;62.08;;;35.22;;
20619;SDS011;10469;42.720;23.252;2023-12-29T01:34:12;56.45;;;33.58;;
20619;SDS011;10469;42.720;23.252;2023-12-29T01:36:38;53.35;;;32.50;;
20619;SDS011;10469;42.720;23.252;2023-12-29T01:39:04;50.67;;;31.65;;
20619;SDS011;10469;42.720;23.252;2023-12-29T01:41:30;54.85;;;31.30;;
20619;SDS011;10469;42.720;23.252;2023-12-29T01:46:22;53.50;;;28.77;;
20619;SDS011;10469;42.720;23.252;2023-12-29T01:48:52;40.88;;;26.77;;
20619;SDS011;10469;42.720;23.252;2023-12-29T01:51:18;44.90;;;28.83;;
20619;SDS011;10469;42.720;23.252;2023-12-29T01:53:49;49.88;;;27.13;;
20619;SDS011;10469;42.720;23.252;2023-12-29T01:56:19;46.22;;;27.23;;
20619;SDS011;10469;42.720;23.252;2023-12-29T01:58:46;50.13;;;28.27;;
20619;SDS011;10469;42.720;23.252;2023-12-29T02:01:15;46.45;;;29.10;;
20619;SDS011;10469;42.720;23.252;2023-12-29T02:03:42;49.35;;;28.40;;
20619;SDS011;10469;42.720;23.252;2023-12-29T02:06:09;45.20;;;28.17;;
20619;SDS011;10469;42.720;23.252;2023-12-29T02:08:36;49.28;;;27.13;;
20619;SDS011;10469;42.720;23.252;2023-12-29T02:11:02;50.47;;;29.05;;
20619;SDS011;10469;42.720;23.252;2023-12-29T02:13:29;48.97;;;27.77;;
20619;SDS011;10469;42.720;23.252;2023-12-29T02:15:56;49.53;;;26.23;;
20619;SDS011;10469;42.720;23.252;2023-12-29T02:18:29;42.92;;;26.42;;
20619;SDS011;10469;42.720;23.252;2023-12-29T02:20:58;45.88;;;24.88;;
20619;SDS011;10469;42.720;23.252;2023-12-29T02:23:24;42.72;;;25.45;;
20619;SDS011;10469;42.720;23.252;2023-12-29T02:25:50;35.67;;;23.38;;
20619;SDS011;10469;42.720;23.252;2023-12-29T02:28:22;36.22;;;23.00;;
20619;SDS011;10469;42.720;23.252;2023-12-29T02:31:00;37.78;;;24.50;;
20619;SDS011;10469;42.720;23.252;2023-12-29T02:33:31;43.58;;;24.90;;
20619;SDS011;10469;42.720;23.252;2023-12-29T02:36:03;36.83;;;23.63;;
20619;SDS011;10469;42.720;23.252;2023-12-29T02:38:31;41.13;;;24.30;;
20619;SDS011;10469;42.720;23.252;2023-12-29T02:40:58;40.28;;;24.52;;
20619;SDS011;10469;42.720;23.252;2023-12-29T02:43:24;54.83;;;30.67;;
20619;SDS011;10469;42.720;23.252;2023-12-29T02:45:49;57.88;;;32.25;;
20619;SDS011;10469;42.720;23.252;2023-12-29T02:48:15;56.92;;;32.75;;
20619;SDS011;10469;42.720;23.252;2023-12-29T02:50:41;87.65;;;53.70;;
20619;SDS011;10469;42.720;23.252;2023-12-29T02:53:07;100.72;;;56.50;;
20619;SDS011;10469;42.720;23.252;2023-12-29T02:55:33;101.10;;;56.25;;
20619;SDS011;10469;42.720;23.252;2023-12-29T02:58:00;94.10;;;56.15;;
20619;SDS011;10469;42.720;23.252;2023-12-29T03:00:26;91.38;;;51.45;;
20619;SDS011;10469;42.720;23.252;2023-12-29T03:02:51;97.80;;;55.90;;
20619;SDS011;10469;42.720;23.252;2023-12-29T03:05:17;72.10;;;44.72;;
20619;SDS011;10469;42.720;23.252;2023-12-29T03:07:42;74.30;;;44.55;;
20619;SDS011;10469;42.720;23.252;2023-12-29T03:10:08;85.13;;;46.00;;
20619;SDS011;10469;42.720;23.252;2023-12-29T03:12:34;74.57;;;44.80;;
20619;SDS011;10469;42.720;23.252;2023-12-29T03:15:00;74.80;;;43.13;;
20619;SDS011;10469;42.720;23.252;2023-12-29T03:17:26;82.07;;;50.65;;
20619;SDS011;10469;42.720;23.252;2023-12-29T03:19:52;85.20;;;50.47;;
20619;SDS011;10469;42.720;23.252;2023-12-29T03:22:18;92.43;;;51.50;;
20619;SDS011;10469;42.720;23.252;2023-12-29T03:24:44;71.90;;;44.10;;
20619;SDS011;10469;42.720;23.252;2023-12-29T03:27:10;65.22;;;37.47;;
20619;SDS011;10469;42.720;23.252;2023-12-29T03:29:36;67.93;;;39.67;;
20619;SDS011;10469;42.720;23.252;2023-12-29T03:32:02;66.85;;;37.83;;
20619;SDS011;10469;42.720;23.252;2023-12-29T03:34:28;68.05;;;39.00;;
20619;SDS011;10469;42.720;23.252;2023-12-29T03:36:53;63.67;;;39.03;;
20619;SDS011;10469;42.720;23.252;2023-12-29T03:39:19;67.70;;;38.05;;
20619;SDS011;10469;42.720;23.252;2023-12-29T03:41:45;65.25;;;39.15;;
20619;SDS011;10469;42.720;23.252;2023-12-29T03:44:10;62.55;;;38.28;;
20619;SDS011;10469;42.720;23.252;2023-12-29T03:46:36;58.13;;;37.10;;
20619;SDS011;10469;42.720;23.252;2023-12-29T03:49:02;57.30;;;36.80;;
20619;SDS011;10469;42.720;23.252;2023-12-29T03:51:28;56.47;;;34.55;;
20619;SDS011;10469;42.720;23.252;2023-12-29T03:53:54;52.83;;;32.17;;
20619;SDS011;10469;42.720;23.252;2023-12-29T03:56:19;51.22;;;30.23;;
20619;SDS011;10469;42.720;23.252;2023-12-29T03:58:45;52.78;;;32.70;;
20619;SDS011;10469;42.720;23.252;2023-12-29T04:01:12;57.63;;;32.15;;
20619;SDS011;10469;42.720;23.252;2023-12-29T04:03:41;55.47;;;34.50;;
20619;SDS011;10469;42.720;23.252;2023-12-29T04:06:08;60.10;;;34.75;;
20619;SDS011;10469;42.720;23.252;2023-12-29T04:08:34;58.58;;;33.65;;
20619;SDS011;10469;42.720;23.252;2023-12-29T04:11:00;57.03;;;34.08;;
20619;SDS011;10469;42.720;23.252;2023-12-29T04:13:26;58.95;;;33.38;;
20619;SDS011;10469;42.720;23.252;2023-12-29T04:15:52;57.00;;;34.25;;
20619;SDS011;10469;42.720;23.252;2023-12-29T04:18:20;59.95;;;34.20;;
20619;SDS011;10469;42.720;23.252;2023-12-29T04:20:46;64.35;;;34.30;;
20619;SDS011;10469;42.720;23.252;2023-12-29T04:23:12;55.72;;;34.20;;
20619;SDS011;10469;42.720;23.252;2023-12-29T04:25:37;61.83;;;34.83;;
20619;SDS011;10469;42.720;23.252;2023-12-29T04:28:03;58.15;;;33.38;;
20619;SDS011;10469;42.720;23.252;2023-12-29T04:30:29;59.47;;;33.50;;
20619;SDS011;10469;42.720;23.252;2023-12-29T04:32:55;56.30;;;34.17;;
20619;SDS011;10469;42.720;23.252;2023-12-29T04:35:20;56.22;;;33.42;;
20619;SDS011;10469;42.720;23.252;2023-12-29T04:37:46;62.20;;;35.63;;
20619;SDS011;10469;42.720;23.252;2023-12-29T04:40:12;58.95;;;34.60;;
20619;SDS011;10469;42.720;23.252;2023-12-29T04:42:38;61.25;;;35.90;;
20619;SDS011;10469;42.720;23.252;2023-12-29T04:45:04;49.25;;;33.65;;
20619;SDS011;10469;42.720;23.252;2023-12-29T04:47:30;58.05;;;36.40;;
20619;SDS011;10469;42.720;23.252;2023-12-29T04:49:56;64.45;;;38.90;;
20619;SDS011;10469;42.720;23.252;2023-12-29T04:52:23;65.20;;;39.67;;
20619;SDS011;10469;42.720;23.252;2023-12-29T04:54:48;60.08;;;37.00;;
20619;SDS011;10469;42.720;23.252;2023-12-29T04:57:14;60.28;;;34.13;;
20619;SDS011;10469;42.720;23.252;2023-12-29T04:59:40;49.40;;;31.00;;
20619;SDS011;10469;42.720;23.252;2023-12-29T05:02:06;43.63;;;28.55;;
20619;SDS011;10469;42.720;23.252;2023-12-29T05:04:31;42.50;;;25.42;;
20619;SDS011;10469;42.720;23.252;2023-12-29T05:06:57;43.78;;;27.27;;
20619;SDS011;10469;42.720;23.252;2023-12-29T05:09:23;46.90;;;28.50;;
20619;SDS011;10469;42.720;23.252;2023-12-29T05:11:48;58.13;;;35.72;;
20619;SDS011;10469;42.720;23.252;2023-12-29T05:14:14;69.70;;;41.40;;
20619;SDS011;10469;42.720;23.252;2023-12-29T05:16:43;69.40;;;42.00;;
20619;SDS011;10469;42.720;23.252;2023-12-29T05:19:09;63.88;;;43.03;;
20619;SDS011;10469;42.720;23.252;2023-12-29T05:21:34;65.07;;;41.72;;
20619;SDS011;10469;42.720;23.252;2023-12-29T05:24:00;56.25;;;36.45;;
20619;SDS011;10469;42.720;23.252;2023-12-29T05:26:26;54.15;;;33.40;;
20619;SDS011;10469;42.720;23.252;2023-12-29T05:28:51;58.03;;;33.13;;
20619;SDS011;10469;42.720;23.252;2023-12-29T05:31:17;56.25;;;33.08;;
20619;SDS011;10469;42.720;23.252;2023-12-29T05:33:43;57.83;;;33.22;;
20619;SDS011;10469;42.720;23.252;2023-12-29T05:36:10;53.15;;;30.80;;
20619;SDS011;10469;42.720;23.252;2023-12-29T05:38:36;55.47;;;31.60;;
20619;SDS011;10469;42.720;23.252;2023-12-29T05:41:03;55.17;;;32.63;;
20619;SDS011;10469;42.720;23.252;2023-12-29T05:43:30;53.60;;;31.48;;
20619;SDS011;10469;42.720;23.252;2023-12-29T05:45:58;52.03;;;31.73;;
20619;SDS011;10469;42.720;23.252;2023-12-29T05:48:24;52.45;;;31.73;;
20619;SDS011;10469;42.720;23.252;2023-12-29T05:50:50;51.47;;;31.45;;
20619;SDS011;10469;42.720;23.252;2023-12-29T05:53:16;59.80;;;32.95;;
20619;SDS011;10469;42.720;23.252;2023-12-29T05:55:43;55.13;;;32.45;;
20619;SDS011;10469;42.720;23.252;2023-12-29T05:58:09;60.83;;;32.45;;
20619;SDS011;10469;42.720;23.252;2023-12-29T06:00:36;60.10;;;33.60;;
20619;SDS011;10469;42.720;23.252;2023-12-29T06:03:02;56.75;;;34.50;;
20619;SDS011;10469;42.720;23.252;2023-12-29T06:05:29;54.90;;;34.53;;
20619;SDS011;10469;42.720;23.252;2023-12-29T06:07:55;66.75;;;34.42;;
20619;SDS011;10469;42.720;23.252;2023-12-29T06:10:21;58.00;;;33.60;;
20619;SDS011;10469;42.720;23.252;2023-12-29T06:12:47;57.15;;;31.90;;
20619;SDS011;10469;42.720;23.252;2023-12-29T06:15:13;52.30;;;32.65;;
20619;SDS011;10469;42.720;23.252;2023-12-29T06:17:41;63.85;;;35.70;;
20619;SDS011;10469;42.720;23.252;2023-12-29T06:20:07;49.38;;;30.85;;
20619;SDS011;10469;42.720;23.252;2023-12-29T06:22:38;59.03;;;33.58;;
20619;SDS011;10469;42.720;23.252;2023-12-29T06:25:10;64.63;;;37.83;;
20619;SDS011;10469;42.720;23.252;2023-12-29T06:27:37;74.07;;;39.42;;
20619;SDS011;10469;42.720;23.252;2023-12-29T06:30:07;70.65;;;40.42;;
20619;SDS011;10469;42.720;23.252;2023-12-29T06:32:34;70.57;;;42.05;;
20619;SDS011;10469;42.720;23.252;2023-12-29T06:35:00;66.28;;;38.63;;
20619;SDS011;10469;42.720;23.252;2023-12-29T06:37:25;65.35;;;39.67;;
20619;SDS011;10469;42.720;23.252;2023-12-29T06:39:51;68.35;;;41.20;;
20619;SDS011;10469;42.720;23.252;2023-12-29T06:42:17;62.25;;;37.75;;
20619;SDS011;10469;42.720;23.252;2023-12-29T06:44:42;62.20;;;36.35;;
20619;SDS011;10469;42.720;23.252;2023-12-29T06:47:08;59.67;;;35.10;;
20619;SDS011;10469;42.720;23.252;2023-12-29T06:49:34;62.45;;;33.65;;
20619;SDS011;10469;42.720;23.252;2023-12-29T06:52:00;66.07;;;33.63;;
20619;SDS011;10469;42.720;23.252;2023-12-29T06:54:26;52.45;;;31.40;;
20619;SDS011;10469;42.720;23.252;2023-12-29T06:56:52;49.70;;;30.63;;
20619;SDS011;10469;42.720;23.252;2023-12-29T06:59:18;50.47;;;31.23;;
20619;SDS011;10469;42.720;23.252;2023-12-29T07:01:45;53.28;;;30.77;;
20619;SDS011;10469;42.720;23.252;2023-12-29T07:04:11;56.05;;;31.40;;
20619;SDS011;10469;42.720;23.252;2023-12-29T07:06:37;56.30;;;32.47;;
20619;SDS011;10469;42.720;23.252;2023-12-29T07:09:03;68.22;;;36.28;;
20619;SDS011;10469;42.720;23.252;2023-12-29T07:11:29;77.78;;;40.92;;
20619;SDS011;10469;42.720;23.252;2023-12-29T07:13:55;76.88;;;42.97;;
20619;SDS011;10469;42.720;23.252;2023-12-29T07:16:21;71.15;;;40.95;;
20619;SDS011;10469;42.720;23.252;2023-12-29T07:18:47;61.60;;;34.75;;
20619;SDS011;10469;42.720;23.252;2023-12-29T07:21:14;64.97;;;39.15;;
20619;SDS011;10469;42.720;23.252;2023-12-29T07:23:41;57.72;;;33.78;;
20619;SDS011;10469;42.720;23.252;2023-12-29T07:26:08;63.35;;;33.03;;
20619;SDS011;10469;42.720;23.252;2023-12-29T07:28:33;51.80;;;29.77;;
20619;SDS011;10469;42.720;23.252;2023-12-29T07:30:59;50.45;;;29.15;;
20619;SDS011;10469;42.720;23.252;2023-12-29T07:33:26;48.67;;;27.75;;
20619;SDS011;10469;42.720;23.252;2023-12-29T07:35:52;45.35;;;29.17;;
20619;SDS011;10469;42.720;23.252;2023-12-29T07:38:18;55.55;;;31.40;;
20619;SDS011;10469;42.720;23.252;2023-12-29T07:40:44;53.10;;;31.95;;
20619;SDS011;10469;42.720;23.252;2023-12-29T07:43:10;58.22;;;30.83;;
20619;SDS011;10469;42.720;23.252;2023-12-29T07:45:36;45.60;;;28.17;;
20619;SDS011;10469;42.720;23.252;2023-12-29T07:48:02;49.75;;;28.30;;
20619;SDS011;10469;42.720;23.252;2023-12-29T07:50:29;46.25;;;27.95;;
20619;SDS011;10469;42.720;23.252;2023-12-29T07:52:54;46.30;;;27.52;;
20619;SDS011;10469;42.720;23.252;2023-12-29T07:55:20;46.53;;;27.15;;
20619;SDS011;10469;42.720;23.252;2023-12-29T07:57:46;56.67;;;31.27;;
20619;SDS011;10469;42.720;23.252;2023-12-29T08:00:13;58.33;;;32.42;;
20619;SDS011;10469;42.720;23.252;2023-12-29T08:02:40;50.72;;;29.42;;
20619;SDS011;10469;42.720;23.252;2023-12-29T08:05:06;56.35;;;31.50;;
20619;SDS011;10469;42.720;23.252;2023-12-29T08:07:37;58.30;;;31.92;;
20619;SDS011;10469;42.720;23.252;2023-12-29T08:10:04;56.95;;;31.45;;
20619;SDS011;10469;42.720;23.252;2023-12-29T08:12:30;56.67;;;31.33;;
20619;SDS011;10469;42.720;23.252;2023-12-29T08:14:58;51.08;;;30.08;;
20619;SDS011;10469;42.720;23.252;2023-12-29T08:17:24;54.17;;;28.02;;
20619;SDS011;10469;42.720;23.252;2023-12-29T08:19:49;51.15;;;26.85;;
20619;SDS011;10469;42.720;23.252;2023-12-29T08:22:15;54.38;;;28.23;;
20619;SDS011;10469;42.720;23.252;2023-12-29T08:24:41;54.05;;;27.48;;
20619;SDS011;10469;42.720;23.252;2023-12-29T08:27:09;48.85;;;27.40;;
20619;SDS011;10469;42.720;23.252;2023-12-29T08:29:37;48.47;;;25.92;;
20619;SDS011;10469;42.720;23.252;2023-12-29T08:32:02;49.03;;;26.27;;
20619;SDS011;10469;42.720;23.252;2023-12-29T08:34:28;47.92;;;25.80;;
20619;SDS011;10469;42.720;23.252;2023-12-29T08:36:54;50.05;;;26.95;;
20619;SDS011;10469;42.720;23.252;2023-12-29T08:39:20;42.30;;;26.13;;
20619;SDS011;10469;42.720;23.252;2023-12-29T08:41:46;54.03;;;28.63;;
20619;SDS011;10469;42.720;23.252;2023-12-29T08:44:14;48.85;;;27.67;;
20619;SDS011;10469;42.720;23.252;2023-12-29T08:46:40;52.25;;;28.65;;
20619;SDS011;10469;42.720;23.252;2023-12-29T08:49:06;51.75;;;27.33;;
20619;SDS011;10469;42.720;23.252;2023-12-29T08:51:32;54.70;;;28.15;;
20619;SDS011;10469;42.720;23.252;2023-12-29T08:53:58;56.97;;;30.40;;
20619;SDS011;10469;42.720;23.252;2023-12-29T08:56:23;59.50;;;30.15;;
20619;SDS011;10469;42.720;23.252;2023-12-29T08:58:49;53.30;;;30.42;;
20619;SDS011;10469;42.720;23.252;2023-12-29T09:01:15;54.28;;;31.25;;
20619;SDS011;10469;42.720;23.252;2023-12-29T09:03:41;59.25;;;31.00;;
20619;SDS011;10469;42.720;23.252;2023-12-29T09:06:07;50.80;;;29.98;;
20619;SDS011;10469;42.720;23.252;2023-12-29T09:08:34;53.85;;;30.55;;
20619;SDS011;10469;42.720;23.252;2023-12-29T09:11:00;55.92;;;31.67;;
20619;SDS011;10469;42.720;23.252;2023-12-29T09:13:26;48.97;;;29.92;;
20619;SDS011;10469;42.720;23.252;2023-12-29T09:15:53;57.03;;;32.47;;
20619;SDS011;10469;42.720;23.252;2023-12-29T09:18:19;57.45;;;33.28;;
20619;SDS011;10469;42.720;23.252;2023-12-29T09:20:45;53.10;;;33.35;;
20619;SDS011;10469;42.720;23.252;2023-12-29T09:23:11;57.08;;;31.98;;
20619;SDS011;10469;42.720;23.252;2023-12-29T09:25:37;55.17;;;28.80;;
20619;SDS011;10469;42.720;23.252;2023-12-29T09:28:02;52.60;;;30.13;;
20619;SDS011;10469;42.720;23.252;2023-12-29T09:30:28;44.58;;;28.95;;
20619;SDS011;10469;42.720;23.252;2023-12-29T09:32:54;49.35;;;31.55;;
20619;SDS011;10469;42.720;23.252;2023-12-29T09:35:20;48.05;;;30.92;;
20619;SDS011;10469;42.720;23.252;2023-12-29T09:37:48;54.22;;;30.77;;
20619;SDS011;10469;42.720;23.252;2023-12-29T09:40:14;47.55;;;31.27;;
20619;SDS011;10469;42.720;23.252;2023-12-29T09:42:40;54.38;;;34.65;;
20619;SDS011;10469;42.720;23.252;2023-12-29T09:45:10;70.15;;;39.75;;
20619;SDS011;10469;42.720;23.252;2023-12-29T09:47:40;57.38;;;37.50;;
20619;SDS011;10469;42.720;23.252;2023-12-29T09:50:11;55.85;;;37.53;;
20619;SDS011;10469;42.720;23.252;2023-12-29T09:52:38;58.88;;;38.28;;
20619;SDS011;10469;42.720;23.252;2023-12-29T09:55:05;58.28;;;35.85;;
20619;SDS011;10469;42.720;23.252;2023-12-29T09:57:35;59.03;;;37.53;;
20619;SDS011;10469;42.720;23.252;2023-12-29T10:00:04;57.97;;;39.33;;
20619;SDS011;10469;42.720;23.252;2023-12-29T10:02:31;62.53;;;41.22;;
20619;SDS011;10469;42.720;23.252;2023-12-29T10:04:57;66.35;;;41.40;;
20619;SDS011;10469;42.720;23.252;2023-12-29T10:07:26;68.28;;;41.60;;
20619;SDS011;10469;42.720;23.252;2023-12-29T10:09:55;70.55;;;45.58;;
20619;SDS011;10469;42.720;23.252;2023-12-29T10:12:27;77.63;;;47.33;;
20619;SDS011;10469;42.720;23.252;2023-12-29T10:15:01;74.32;;;46.83;;
20619;SDS011;10469;42.720;23.252;2023-12-29T10:20:30;77.50;;;43.90;;
20619;SDS011;10469;42.720;23.252;2023-12-29T10:25:38;71.13;;;45.17;;
20619;SDS011;10469;42.720;23.252;2023-12-29T10:28:05;72.13;;;45.33;;
20619;SDS011;10469;42.720;23.252;2023-12-29T10:30:31;70.97;;;45.67;;
20619;SDS011;10469;42.720;23.252;2023-12-29T10:32:57;74.32;;;47.13;;
20619;SDS011;10469;42.720;23.252;2023-12-29T10:35:25;73.85;;;46.67;;
20619;SDS011;10469;42.720;23.252;2023-12-29T10:37:51;75.75;;;49.58;;
20619;SDS011;10469;42.720;23.252;2023-12-29T10:40:19;75.78;;;45.58;;
20619;SDS011;10469;42.720;23.252;2023-12-29T10:42:52;80.00;;;48.65;;
20619;SDS011;10469;42.720;23.252;2023-12-29T10:45:19;73.68;;;48.50;;
20619;SDS011;10469;42.720;23.252;2023-12-29T10:47:45;79.07;;;47.78;;
20619;SDS011;10469;42.720;23.252;2023-12-29T10:50:11;85.10;;;48.22;;
20619;SDS011;10469;42.720;23.252;2023-12-29T10:52:38;76.88;;;48.53;;
20619;SDS011;10469;42.720;23.252;2023-12-29T10:55:06;78.00;;;47.80;;
20619;SDS011;10469;42.720;23.252;2023-12-29T10:57:33;73.00;;;46.78;;
20619;SDS011;10469;42.720;23.252;2023-12-29T10:59:59;77.15;;;47.70;;
20619;SDS011;10469;42.720;23.252;2023-12-29T11:02:25;73.85;;;46.13;;
20619;SDS011;10469;42.720;23.252;2023-12-29T11:05:09;79.13;;;44.30;;
20619;SDS011;10469;42.720;23.252;2023-12-29T11:07:39;74.25;;;43.10;;
20619;SDS011;10469;42.720;23.252;2023-12-29T11:10:09;66.22;;;44.33;;
20619;SDS011;10469;42.720;23.252;2023-12-29T11:12:36;68.68;;;43.80;;
20619;SDS011;10469;42.720;23.252;2023-12-29T11:15:04;78.30;;;46.38;;
20619;SDS011;10469;42.720;23.252;2023-12-29T11:17:31;73.70;;;44.42;;
20619;SDS011;10469;42.720;23.252;2023-12-29T11:19:59;76.22;;;44.03;;
20619;SDS011;10469;42.720;23.252;2023-12-29T11:22:29;72.05;;;45.67;;
20619;SDS011;10469;42.720;23.252;2023-12-29T11:24:56;64.82;;;41.95;;
20619;SDS011;10469;42.720;23.252;2023-12-29T11:27:28;67.40;;;41.97;;
20619;SDS011;10469;42.720;23.252;2023-12-29T11:29:59;68.63;;;41.75;;
20619;SDS011;10469;42.720;23.252;2023-12-29T11:35:27;66.32;;;42.28;;
20619;SDS011;10469;42.720;23.252;2023-12-29T11:43:16;65.68;;;42.00;;
20619;SDS011;10469;42.720;23.252;2023-12-29T11:45:43;70.72;;;41.50;;
20619;SDS011;10469;42.720;23.252;2023-12-29T11:48:10;65.82;;;40.58;;
20619;SDS011;10469;42.720;23.252;2023-12-29T11:50:37;69.40;;;42.45;;
20619;SDS011;10469;42.720;23.252;2023-12-29T11:53:05;69.68;;;42.33;;
20619;SDS011;10469;42.720;23.252;2023-12-29T11:55:36;77.82;;;44.60;;
20619;SDS011;10469;42.720;23.252;2023-12-29T11:58:23;65.15;;;42.05;;
20619;SDS011;10469;42.720;23.252;2023-12-29T12:00:49;71.47;;;42.78;;
20619;SDS011;10469;42.720;23.252;2023-12-29T12:05:45;66.38;;;44.35;;
20619;SDS011;10469;42.720;23.252;2023-12-29T12:14:02;82.85;;;45.38;;
20619;SDS011;10469;42.720;23.252;2023-12-29T12:16:49;70.45;;;44.78;;
20619;SDS011;10469;42.720;23.252;2023-12-29T12:19:15;72.22;;;45.20;;
20619;SDS011;10469;42.720;23.252;2023-12-29T12:21:46;70.63;;;44.17;;
20619;SDS011;10469;42.720;23.252;2023-12-29T12:24:15;61.97;;;39.05;;
20619;SDS011;10469;42.720;23.252;2023-12-29T12:26:44;71.15;;;40.90;;
20619;SDS011;10469;42.720;23.252;2023-12-29T12:29:12;54.72;;;34.15;;
20619;SDS011;10469;42.720;23.252;2023-12-29T12:34:37;68.97;;;37.53;;
20619;SDS011;10469;42.720;23.252;2023-12-29T12:37:04;68.18;;;37.67;;
20619;SDS011;10469;42.720;23.252;2023-12-29T12:39:39;63.63;;;35.78;;
20619;SDS011;10469;42.720;23.252;2023-12-29T12:42:06;61.05;;;36.35;;
20619;SDS011;10469;42.720;23.252;2023-12-29T12:44:31;55.53;;;34.72;;
20619;SDS011;10469;42.720;23.252;2023-12-29T12:46:58;72.10;;;35.88;;
20619;SDS011;10469;42.720;23.252;2023-12-29T12:49:27;58.13;;;33.72;;
20619;SDS011;10469;42.720;23.252;2023-12-29T12:51:54;59.63;;;33.33;;
20619;SDS011;10469;42.720;23.252;2023-12-29T12:54:20;52.03;;;32.50;;
20619;SDS011;10469;42.720;23.252;2023-12-29T12:56:46;49.60;;;31.10;;
20619;SDS011;10469;42.720;23.252;2023-12-29T12:59:13;56.22;;;31.83;;
20619;SDS011;10469;42.720;23.252;2023-12-29T13:01:39;63.92;;;33.78;;
20619;SDS011;10469;42.720;23.252;2023-12-29T13:04:06;57.38;;;33.90;;
20619;SDS011;10469;42.720;23.252;2023-12-29T13:06:33;47.72;;;31.65;;
20619;SDS011;10469;42.720;23.252;2023-12-29T13:09:03;57.90;;;31.63;;
20619;SDS011;10469;42.720;23.252;2023-12-29T13:11:34;51.80;;;30.42;;
20619;SDS011;10469;42.720;23.252;2023-12-29T13:13:59;61.00;;;30.05;;
20619;SDS011;10469;42.720;23.252;2023-12-29T13:16:36;45.95;;;27.48;;
20619;SDS011;10469;42.720;23.252;2023-12-29T13:19:16;48.80;;;26.60;;
20619;SDS011;10469;42.720;23.252;2023-12-29T13:21:50;44.70;;;26.58;;
20619;SDS011;10469;42.720;23.252;2023-12-29T13:24:20;49.42;;;25.65;;
20619;SDS011;10469;42.720;23.252;2023-12-29T13:26:47;44.05;;;25.77;;
20619;SDS011;10469;42.720;23.252;2023-12-29T13:29:21;56.13;;;25.15;;
20619;SDS011;10469;42.720;23.252;2023-12-29T13:31:49;38.97;;;24.05;;
20619;SDS011;10469;42.720;23.252;2023-12-29T13:34:19;40.47;;;23.23;;
20619;SDS011;10469;42.720;23.252;2023-12-29T13:36:48;43.63;;;23.08;;
20619;SDS011;10469;42.720;23.252;2023-12-29T13:39:41;38.95;;;23.00;;
20619;SDS011;10469;42.720;23.252;2023-12-29T13:42:11;36.55;;;22.42;;
20619;SDS011;10469;42.720;23.252;2023-12-29T13:44:40;43.50;;;24.48;;
20619;SDS011;10469;42.720;23.252;2023-12-29T13:47:08;38.95;;;23.80;;
20619;SDS011;10469;42.720;23.252;2023-12-29T13:49:35;42.78;;;24.80;;
20619;SDS011;10469;42.720;23.252;2023-12-29T13:52:03;43.15;;;24.67;;
20619;SDS011;10469;42.720;23.252;2023-12-29T13:54:29;48.67;;;23.15;;
20619;SDS011;10469;42.720;23.252;2023-12-29T13:56:55;36.42;;;21.20;;
20619;SDS011;10469;42.720;23.252;2023-12-29T13:59:32;43.65;;;21.73;;
20619;SDS011;10469;42.720;23.252;2023-12-29T14:01:59;38.40;;;21.25;;
20619;SDS011;10469;42.720;23.252;2023-12-29T14:04:28;35.55;;;21.90;;
20619;SDS011;10469;42.720;23.252;2023-12-29T14:07:00;38.35;;;21.45;;
20619;SDS011;10469;42.720;23.252;2023-12-29T14:11:53;31.88;;;18.77;;
20619;SDS011;10469;42.720;23.252;2023-12-29T14:14:24;30.60;;;18.15;;
20619;SDS011;10469;42.720;23.252;2023-12-29T14:16:51;35.05;;;17.35;;
20619;SDS011;10469;42.720;23.252;2023-12-29T14:19:20;32.78;;;18.45;;
20619;SDS011;10469;42.720;23.252;2023-12-29T14:21:46;26.73;;;15.63;;
20619;SDS011;10469;42.720;23.252;2023-12-29T14:24:16;30.85;;;16.13;;
20619;SDS011;10469;42.720;23.252;2023-12-29T14:29:17;25.45;;;15.32;;
20619;SDS011;10469;42.720;23.252;2023-12-29T14:31:43;25.92;;;15.32;;
20619;SDS011;10469;42.720;23.252;2023-12-29T14:34:10;32.45;;;15.38;;
20619;SDS011;10469;42.720;23.252;2023-12-29T14:36:37;34.05;;;15.38;;
20619;SDS011;10469;42.720;23.252;2023-12-29T14:39:05;26.90;;;13.18;;
20619;SDS011;10469;42.720;23.252;2023-12-29T14:41:33;26.25;;;12.98;;